Terminal Aerodrome Forecast
Issued by NWS

Home | Current Version | Previous Version | Text Only | Print | Product List | Glossary On
Versions: 1 2 3 4 5 6 7 8 9 10 11 12 13 14 15 16 17 18 19 20 21 22
201
FTUS46 KLOX 221740
TAFSBP
TAF
KSBP 221740Z 2218/2318 32006KT P6SM BKN025 OVC050
     FM222100 30010KT P6SM BKN035
     FM222300 31014KT P6SM SCT035 BKN050
     FM230300 31010KT P6SM BKN040
     FM230900 VRB03KT P6SM BKN015
     FM231500 31005KT P6SM BKN025=

USA.gov is the U.S. government's official web portal to all federal, state and local government web resources and services.